createdAt,value
2019-04-21T00:00:37.777Z,8.90
2019-04-21T00:03:16.442Z,8.90
2019-04-21T00:05:58.809Z,8.90
2019-04-21T00:08:33.369Z,8.80
2019-04-21T00:11:05.920Z,8.80
2019-04-21T00:13:25.263Z,8.70
2019-04-21T00:15:46.729Z,8.70
2019-04-21T00:18:30.174Z,8.70
2019-04-21T00:21:11.043Z,8.60
2019-04-21T00:23:49.619Z,8.60
2019-04-21T00:26:16.148Z,8.50
2019-04-21T00:28:59.505Z,8.50
2019-04-21T00:31:22.115Z,8.40
2019-04-21T00:33:35.599Z,8.40
2019-04-21T00:36:11.528Z,8.40
2019-04-21T00:39:07.123Z,8.30
2019-04-21T00:41:24.979Z,8.30
2019-04-21T00:43:49.052Z,8.20
2019-04-21T00:46:17.983Z,8.10
2019-04-21T00:48:59.225Z,8.10
2019-04-21T00:51:40.710Z,8.10
2019-04-21T00:54:04.000Z,8.00
2019-04-21T00:56:30.943Z,8.00
2019-04-21T00:59:01.232Z,7.90
2019-04-21T01:01:32.899Z,7.80
2019-04-21T01:04:04.842Z,7.80
2019-04-21T01:06:36.896Z,7.80
2019-04-21T01:09:00.916Z,7.80
2019-04-21T01:11:31.507Z,7.80
2019-04-21T01:14:07.064Z,7.80
2019-04-21T01:16:39.581Z,7.70
2019-04-21T01:19:07.859Z,7.60
2019-04-21T01:21:14.683Z,7.60
2019-04-21T01:23:44.542Z,7.60
2019-04-21T01:26:22.856Z,7.50
2019-04-21T01:29:02.783Z,7.50
2019-04-21T01:31:30.579Z,7.40
2019-04-21T01:34:13.387Z,7.30
2019-04-21T01:36:34.726Z,7.30
2019-04-21T01:39:05.312Z,7.30
2019-04-21T01:41:42.988Z,7.20
2019-04-21T01:44:09.453Z,7.20
2019-04-21T01:46:33.566Z,7.10
2019-04-21T01:49:01.523Z,7.20
2019-04-21T01:51:45.382Z,7.10
2019-04-21T01:54:41.755Z,7.00
2019-04-21T01:57:23.140Z,7.00
2019-04-21T01:59:50.261Z,7.00
2019-04-21T02:02:29.280Z,6.90
2019-04-21T02:05:06.996Z,6.90
2019-04-21T02:07:27.194Z,6.90
2019-04-21T02:10:05.188Z,6.80
2019-04-21T02:12:31.466Z,6.80
2019-04-21T02:15:09.508Z,6.70
2019-04-21T02:17:28.104Z,6.70
2019-04-21T02:19:55.170Z,6.60
2019-04-21T02:22:47.832Z,6.60
2019-04-21T02:25:08.383Z,6.50
2019-04-21T02:27:36.228Z,6.50
2019-04-21T02:30:12.738Z,6.40
2019-04-21T02:32:48.219Z,6.40
2019-04-21T02:35:22.485Z,6.30
2019-04-21T02:37:55.672Z,6.30
2019-04-21T02:43:07.512Z,6.20
2019-04-21T02:45:20.879Z,6.20
2019-04-21T02:55:15.585Z,6.10
2019-04-21T02:57:59.371Z,6.10
2019-04-21T03:03:21.302Z,6.00
2019-04-21T03:06:00.054Z,6.00
2019-04-21T03:10:59.201Z,5.80
2019-04-21T03:13:48.954Z,5.80
2019-04-21T03:16:11.876Z,5.80
2019-04-21T03:18:36.049Z,5.80
2019-04-21T03:23:38.115Z,5.70
2019-04-21T03:26:16.027Z,5.70
2019-04-21T03:28:39.781Z,5.70
2019-04-21T03:31:41.157Z,5.70
2019-04-21T03:36:33.218Z,5.60
2019-04-21T03:38:37.514Z,5.50
2019-04-21T03:41:22.173Z,5.50
2019-04-21T03:43:44.654Z,5.60
2019-04-21T03:46:11.827Z,5.60
2019-04-21T03:48:46.326Z,5.60
2019-04-21T03:51:12.196Z,5.60
2019-04-21T03:53:37.776Z,5.60
2019-04-21T03:56:16.013Z,5.70
2019-04-21T03:58:54.302Z,5.70
2019-04-21T04:01:28.111Z,5.50
2019-04-21T04:07:13.800Z,5.40
2019-04-21T04:12:12.532Z,5.30
2019-04-21T04:19:44.880Z,5.40
2019-04-21T04:22:24.987Z,5.40
2019-04-21T04:25:05.069Z,5.40
2019-04-21T04:29:53.055Z,5.60
2019-04-21T04:32:25.296Z,5.50
2019-04-21T04:34:59.634Z,5.50
2019-04-21T04:37:32.100Z,5.60
2019-04-21T04:43:09.865Z,5.60
2019-04-21T04:45:48.436Z,5.60
2019-04-21T04:48:05.545Z,5.70
2019-04-21T04:50:44.715Z,5.70
2019-04-21T04:53:01.504Z,5.80
2019-04-21T04:55:40.249Z,5.80
2019-04-21T04:58:06.894Z,5.90
2019-04-21T05:06:26.077Z,6.00
2019-04-21T05:16:24.319Z,6.40
2019-04-21T05:18:53.119Z,6.50
2019-04-21T05:21:24.822Z,6.60
2019-04-21T05:23:37.662Z,6.80
2019-04-21T05:26:03.228Z,7.00
2019-04-21T05:28:32.879Z,7.10
2019-04-21T05:31:25.382Z,7.20
2019-04-21T05:33:59.049Z,7.30
2019-04-21T05:36:45.995Z,7.40
2019-04-21T05:39:29.625Z,7.60
2019-04-21T05:41:55.218Z,7.80
2019-04-21T05:44:44.374Z,8.20
2019-04-21T05:47:15.756Z,8.50
2019-04-21T05:49:45.462Z,8.80
2019-04-21T05:52:08.223Z,9.20
2019-04-21T05:54:57.010Z,9.40
2019-04-21T05:57:14.754Z,9.40
2019-04-21T05:59:49.201Z,9.50
2019-04-21T06:02:22.192Z,9.60
2019-04-21T06:07:25.463Z,9.90
2019-04-21T06:09:55.470Z,10.10
2019-04-21T06:12:31.605Z,10.40
2019-04-21T06:15:02.606Z,10.70
2019-04-21T06:17:30.281Z,10.90
2019-04-21T06:22:27.100Z,11.40
2019-04-21T06:30:01.895Z,12.10
2019-04-21T06:35:32.480Z,12.60
2019-04-21T06:40:21.045Z,13.20
2019-04-21T06:42:40.271Z,13.40
2019-04-21T06:45:12.299Z,13.70
2019-04-21T06:47:51.295Z,14.00
2019-04-21T06:50:16.184Z,14.20
2019-04-21T06:55:13.850Z,15.00
2019-04-21T06:57:44.458Z,15.30
2019-04-21T07:00:12.051Z,15.70
2019-04-21T07:02:54.606Z,16.40
2019-04-21T07:05:20.423Z,17.00
2019-04-21T07:08:05.130Z,18.10
2019-04-21T07:10:22.833Z,18.90
2019-04-21T07:12:47.958Z,19.60
2019-04-21T07:15:20.145Z,20.30
2019-04-21T07:17:54.735Z,21.00
2019-04-21T07:20:18.918Z,20.80
2019-04-21T07:23:13.365Z,21.50
2019-04-21T07:25:22.644Z,22.30
2019-04-21T07:27:52.290Z,22.70
2019-04-21T07:30:26.523Z,23.20
2019-04-21T07:32:56.573Z,23.80
2019-04-21T07:35:20.854Z,23.80
2019-04-21T07:37:54.227Z,24.10
2019-04-21T07:40:19.047Z,24.50
2019-04-21T07:42:51.421Z,24.80
2019-04-21T07:45:21.301Z,25.80
2019-04-21T07:48:01.700Z,25.70
2019-04-21T07:50:57.779Z,25.60
2019-04-21T07:53:38.553Z,25.80
2019-04-21T07:55:43.157Z,26.50
2019-04-21T07:58:36.390Z,26.30
2019-04-21T08:01:04.441Z,26.20
2019-04-21T08:03:34.952Z,25.80
2019-04-21T08:06:10.252Z,26.10
2019-04-21T08:08:38.660Z,26.30
2019-04-21T08:11:02.954Z,26.00
2019-04-21T08:13:40.196Z,26.10
2019-04-21T08:18:39.416Z,26.00
2019-04-21T08:21:08.568Z,25.90
2019-04-21T08:23:37.008Z,25.40
2019-04-21T08:26:08.096Z,25.40
2019-04-21T08:28:40.199Z,25.00
2019-04-21T08:31:10.262Z,24.60
2019-04-21T08:36:18.530Z,24.40
2019-04-21T08:38:45.793Z,25.00
2019-04-21T08:41:12.251Z,25.60
2019-04-21T08:46:13.010Z,25.40
2019-04-21T08:48:46.316Z,25.60
2019-04-21T08:53:47.574Z,25.60
2019-04-21T08:56:36.899Z,25.50
2019-04-21T08:59:18.883Z,25.80
2019-04-21T09:01:57.296Z,25.70
2019-04-21T09:04:24.417Z,25.70
2019-04-21T09:07:04.824Z,25.10
2019-04-21T09:09:32.040Z,24.80
2019-04-21T09:11:59.410Z,25.60
2019-04-21T09:14:30.232Z,26.40
2019-04-21T09:16:56.472Z,25.70
2019-04-21T09:19:38.734Z,25.70
2019-04-21T09:22:00.478Z,25.20
2019-04-21T09:24:26.706Z,25.40
2019-04-21T09:26:57.313Z,26.10
2019-04-21T09:29:21.737Z,26.30
2019-04-21T09:31:46.797Z,27.20
2019-04-21T09:34:22.360Z,26.70
2019-04-21T09:36:51.125Z,26.60
2019-04-21T09:39:20.117Z,26.20
2019-04-21T09:41:49.978Z,26.50
2019-04-21T09:44:25.489Z,26.50
2019-04-21T09:46:54.038Z,26.50
2019-04-21T09:49:22.468Z,26.60
2019-04-21T09:51:48.874Z,26.60
2019-04-21T09:54:24.791Z,26.20
2019-04-21T09:56:54.942Z,25.80
2019-04-21T09:59:26.175Z,25.70
2019-04-21T10:02:01.543Z,25.90
2019-04-21T10:04:20.781Z,26.30
2019-04-21T10:06:49.778Z,26.60
2019-04-21T10:09:21.327Z,26.50
2019-04-21T10:11:50.387Z,26.20
2019-04-21T10:14:19.759Z,26.20
2019-04-21T10:17:08.449Z,25.50
2019-04-21T10:19:37.269Z,25.40
2019-04-21T10:22:06.335Z,25.60
2019-04-21T10:24:36.248Z,25.80
2019-04-21T10:27:06.961Z,26.10
2019-04-21T10:29:39.758Z,26.30
2019-04-21T10:32:06.237Z,26.10
2019-04-21T10:34:35.373Z,26.20
2019-04-21T10:37:04.943Z,26.10
2019-04-21T10:39:33.850Z,25.60
2019-04-21T10:42:03.510Z,26.10
2019-04-21T10:44:32.318Z,25.60
2019-04-21T10:47:01.082Z,24.80
2019-04-21T10:49:30.769Z,25.30
2019-04-21T10:52:01.333Z,25.60
2019-04-21T10:54:49.187Z,25.40
2019-04-21T10:57:04.264Z,25.30
2019-04-21T10:59:33.350Z,25.40
2019-04-21T11:02:05.314Z,26.00
2019-04-21T11:04:37.370Z,25.70
2019-04-21T11:07:25.521Z,25.50
2019-04-21T11:09:52.287Z,25.30
2019-04-21T11:12:21.749Z,25.10
2019-04-21T11:14:51.487Z,25.70
2019-04-21T11:17:21.760Z,25.50
2019-04-21T11:19:50.764Z,25.20
2019-04-21T11:22:20.886Z,24.60
2019-04-21T11:24:51.059Z,24.20
2019-04-21T11:27:19.879Z,23.90
2019-04-21T11:29:49.447Z,23.60
2019-04-21T11:32:19.085Z,23.40
2019-04-21T11:34:49.052Z,23.50
2019-04-21T11:37:20.207Z,23.50
2019-04-21T11:39:55.068Z,23.40
2019-04-21T11:42:37.807Z,23.20
2019-04-21T11:45:08.346Z,22.90
2019-04-21T11:47:42.591Z,22.70
2019-04-21T11:50:12.875Z,22.60
2019-04-21T11:52:43.088Z,22.60
2019-04-21T11:55:12.882Z,22.40
2019-04-21T11:57:46.381Z,22.30
2019-04-21T12:00:13.884Z,22.60
2019-04-21T12:02:43.723Z,22.80
2019-04-21T12:05:12.856Z,22.80
2019-04-21T12:07:43.105Z,22.70
2019-04-21T12:10:13.430Z,22.50
2019-04-21T12:12:43.338Z,22.30
2019-04-21T12:15:14.160Z,22.20
2019-04-21T12:17:43.964Z,22.10
2019-04-21T12:20:13.157Z,22.20
2019-04-21T12:22:43.218Z,22.30
2019-04-21T12:25:15.421Z,22.10
2019-04-21T12:27:45.626Z,22.10
2019-04-21T12:30:15.705Z,21.90
2019-04-21T12:32:52.203Z,21.80
2019-04-21T12:35:21.860Z,21.80
2019-04-21T12:37:51.103Z,22.00
2019-04-21T12:40:20.953Z,22.30
2019-04-21T12:42:50.443Z,22.80
2019-04-21T12:45:19.598Z,22.90
2019-04-21T12:47:50.315Z,22.80
2019-04-21T12:50:18.968Z,22.70
2019-04-21T12:52:49.573Z,22.80
2019-04-21T12:55:19.722Z,22.60
2019-04-21T12:57:49.555Z,22.40
2019-04-21T13:00:20.776Z,22.30
2019-04-21T13:02:49.886Z,22.20
2019-04-21T13:05:19.882Z,22.50
2019-04-21T13:07:49.194Z,22.40
2019-04-21T13:10:18.598Z,22.50
2019-04-21T13:12:47.985Z,22.50
2019-04-21T13:15:17.873Z,22.40
2019-04-21T13:17:47.365Z,22.50
2019-04-21T13:20:17.050Z,22.50
2019-04-21T13:22:46.274Z,22.50
2019-04-21T13:25:16.049Z,22.20
2019-04-21T13:27:45.220Z,22.30
2019-04-21T13:30:14.947Z,22.40
2019-04-21T13:32:45.238Z,22.60
2019-04-21T13:35:15.091Z,22.80
2019-04-21T13:37:45.628Z,23.00
2019-04-21T13:40:49.872Z,23.00
2019-04-21T13:43:06.146Z,22.80
2019-04-21T13:45:34.398Z,22.90
2019-04-21T13:48:04.500Z,22.70
2019-04-21T13:50:33.399Z,23.20
2019-04-21T13:53:02.786Z,23.10
2019-04-21T13:55:31.934Z,23.60
2019-04-21T13:58:02.104Z,23.80
2019-04-21T14:00:31.802Z,24.20
2019-04-21T14:03:00.893Z,24.10
2019-04-21T14:05:30.686Z,24.30
2019-04-21T14:08:00.877Z,24.60
2019-04-21T14:10:31.353Z,24.70
2019-04-21T14:13:00.511Z,24.40
2019-04-21T14:15:30.391Z,24.40
2019-04-21T14:18:00.551Z,23.90
2019-04-21T14:20:29.444Z,23.50
2019-04-21T14:23:11.370Z,23.30
2019-04-21T14:25:29.904Z,23.00
2019-04-21T14:27:59.819Z,22.70
2019-04-21T14:30:30.158Z,22.20
2019-04-21T14:33:02.249Z,21.80
2019-04-21T14:35:32.724Z,21.70
2019-04-21T14:38:02.740Z,21.70
2019-04-21T14:40:33.739Z,21.40
2019-04-21T14:43:02.673Z,21.30
2019-04-21T14:45:38.817Z,21.30
2019-04-21T14:48:27.347Z,21.30
2019-04-21T14:51:31.579Z,21.30
2019-04-21T14:54:07.922Z,20.90
2019-04-21T14:56:37.456Z,20.70
2019-04-21T14:59:07.227Z,20.60
2019-04-21T15:01:36.201Z,20.60
2019-04-21T15:04:05.881Z,20.50
2019-04-21T15:06:34.699Z,20.30
2019-04-21T15:09:05.069Z,20.30
2019-04-21T15:11:33.914Z,20.40
2019-04-21T15:14:04.023Z,20.40
2019-04-21T15:16:33.259Z,20.30
2019-04-21T15:19:02.454Z,20.30
2019-04-21T15:21:31.322Z,20.40
2019-04-21T15:24:00.432Z,20.40
2019-04-21T15:26:30.430Z,20.40
2019-04-21T15:28:59.278Z,20.50
2019-04-21T15:31:32.995Z,20.40
2019-04-21T15:33:59.179Z,20.40
2019-04-21T15:36:31.551Z,20.30
2019-04-21T15:38:58.760Z,20.30
2019-04-21T15:41:27.621Z,20.30
2019-04-21T15:43:56.708Z,20.40
2019-04-21T15:46:26.879Z,20.40
2019-04-21T15:48:56.965Z,20.40
2019-04-21T15:51:26.018Z,20.40
2019-04-21T15:53:55.632Z,20.20
2019-04-21T15:56:28.893Z,20.20
2019-04-21T15:59:02.517Z,20.20
2019-04-21T16:01:36.590Z,20.20
2019-04-21T16:04:06.578Z,20.20
2019-04-21T16:06:37.324Z,20.10
2019-04-21T16:09:08.551Z,20.10
2019-04-21T16:11:37.890Z,20.00
2019-04-21T16:14:08.115Z,20.00
2019-04-21T16:16:37.059Z,20.00
2019-04-21T16:19:06.308Z,19.90
2019-04-21T16:21:38.377Z,19.90
2019-04-21T16:24:06.746Z,19.90
2019-04-21T16:26:35.879Z,19.90
2019-04-21T16:29:05.077Z,19.90
2019-04-21T16:31:34.379Z,19.90
2019-04-21T16:34:03.391Z,19.90
2019-04-21T16:36:32.223Z,19.90
2019-04-21T16:39:01.840Z,19.80
2019-04-21T16:41:32.072Z,19.80
2019-04-21T16:44:01.022Z,19.70
2019-04-21T16:46:29.807Z,19.80
2019-04-21T16:48:59.915Z,19.80
2019-04-21T16:51:28.865Z,19.70
2019-04-21T16:54:13.710Z,19.70
2019-04-21T16:56:47.908Z,19.60
2019-04-21T16:59:28.722Z,19.60
2019-04-21T17:01:58.754Z,19.60
2019-04-21T17:04:28.736Z,19.50
2019-04-21T17:06:58.940Z,19.50
2019-04-21T17:09:28.525Z,19.50
2019-04-21T17:12:01.847Z,19.50
2019-04-21T17:14:48.138Z,19.40
2019-04-21T17:17:23.098Z,19.40
2019-04-21T17:19:33.089Z,19.30
2019-04-21T17:21:59.970Z,19.30
2019-04-21T17:24:30.539Z,19.30
2019-04-21T17:26:59.887Z,19.20
2019-04-21T17:29:28.694Z,19.30
2019-04-21T17:31:57.578Z,19.20
2019-04-21T17:34:28.729Z,19.10
2019-04-21T17:36:59.190Z,19.10
2019-04-21T17:39:28.943Z,19.10
2019-04-21T17:42:12.965Z,19.00
2019-04-21T17:44:29.950Z,19.00
2019-04-21T17:47:04.870Z,18.90
2019-04-21T17:49:30.816Z,18.80
2019-04-21T17:52:21.641Z,18.80
2019-04-21T17:55:09.170Z,18.60
2019-04-21T17:57:52.167Z,18.50
2019-04-21T18:00:24.024Z,18.30
2019-04-21T18:02:53.509Z,18.10
2019-04-21T18:05:22.842Z,17.90
2019-04-21T18:07:52.696Z,17.80
2019-04-21T18:10:22.196Z,17.60
2019-04-21T18:12:47.078Z,17.50
2019-04-21T18:15:26.473Z,17.40
2019-04-21T18:17:38.501Z,17.20
2019-04-21T18:20:07.870Z,17.10
2019-04-21T18:23:02.446Z,16.90
2019-04-21T18:25:42.339Z,16.80
2019-04-21T18:28:02.896Z,16.60
2019-04-21T18:30:56.647Z,16.50
2019-04-21T18:33:31.834Z,16.30
2019-04-21T18:36:23.481Z,16.20
2019-04-21T18:39:12.659Z,16.00
2019-04-21T18:41:29.686Z,15.90
2019-04-21T18:44:28.059Z,15.80
2019-04-21T18:46:58.426Z,15.70
2019-04-21T18:49:19.553Z,15.50
2019-04-21T18:51:59.681Z,15.40
2019-04-21T18:54:41.374Z,15.30
2019-04-21T18:57:07.245Z,15.20
2019-04-21T18:59:29.809Z,15.00
2019-04-21T19:02:04.197Z,14.90
2019-04-21T19:04:32.429Z,14.80
2019-04-21T19:07:12.728Z,14.70
2019-04-21T19:12:23.756Z,14.60
2019-04-21T19:14:47.893Z,14.50
2019-04-21T19:17:40.887Z,14.40
2019-04-21T19:19:56.314Z,14.40
2019-04-21T19:22:20.724Z,14.30
2019-04-21T19:24:59.836Z,14.30
2019-04-21T19:27:26.526Z,14.20
2019-04-21T19:30:05.441Z,14.10
2019-04-21T19:32:29.857Z,14.00
2019-04-21T19:34:50.399Z,14.00
2019-04-21T19:37:25.958Z,13.90
2019-04-21T19:40:07.191Z,13.80
2019-04-21T19:42:35.453Z,13.70
2019-04-21T19:45:17.604Z,13.60
2019-04-21T19:48:09.368Z,13.50
2019-04-21T19:50:47.084Z,13.40
2019-04-21T19:53:26.759Z,13.30
2019-04-21T19:56:01.233Z,13.20
2019-04-21T19:58:44.328Z,13.10
2019-04-21T20:01:29.787Z,13.00
2019-04-21T20:04:12.376Z,13.00
2019-04-21T20:07:23.374Z,12.90
2019-04-21T20:10:05.214Z,12.80
2019-04-21T20:13:03.308Z,12.70
2019-04-21T20:22:44.092Z,12.40
2019-04-21T20:25:25.635Z,12.40
2019-04-21T20:28:13.284Z,12.30
2019-04-21T20:31:46.997Z,12.20
2019-04-21T20:34:26.900Z,12.10
2019-04-21T20:36:56.769Z,12.00
2019-04-21T20:39:12.375Z,12.00
2019-04-21T20:41:46.863Z,12.00
2019-04-21T20:44:23.675Z,11.90
2019-04-21T20:46:52.905Z,11.80
2019-04-21T20:49:19.066Z,11.70
2019-04-21T20:52:01.530Z,11.70
2019-04-21T20:54:24.696Z,11.60
2019-04-21T20:56:58.454Z,11.60
2019-04-21T20:59:26.905Z,11.40
2019-04-21T21:02:02.977Z,11.40
2019-04-21T21:04:22.959Z,11.30
2019-04-21T21:07:01.654Z,11.30
2019-04-21T21:09:28.258Z,11.30
2019-04-21T21:12:15.982Z,11.30
2019-04-21T21:14:32.072Z,11.30
2019-04-21T21:17:06.523Z,11.30
2019-04-21T21:19:34.576Z,11.10
2019-04-21T21:22:02.412Z,11.10
2019-04-21T21:24:41.892Z,11.10
2019-04-21T21:27:09.097Z,11.00
2019-04-21T21:29:37.666Z,11.00
2019-04-21T21:32:16.543Z,11.00
2019-04-21T21:34:44.424Z,11.00
2019-04-21T21:37:14.237Z,10.90
2019-04-21T21:39:48.794Z,10.90
2019-04-21T21:41:56.576Z,10.80
2019-04-21T21:44:26.164Z,10.80
2019-04-21T21:47:05.360Z,10.70
2019-04-21T21:49:37.100Z,10.60
2019-04-21T21:52:06.096Z,10.60
2019-04-21T21:54:25.673Z,10.60
2019-04-21T21:56:54.660Z,10.60
2019-04-21T21:59:27.532Z,10.60
2019-04-21T22:01:56.210Z,10.60
2019-04-21T22:04:28.840Z,10.40
2019-04-21T22:07:02.556Z,10.40
2019-04-21T22:09:26.447Z,10.30
2019-04-21T22:12:00.549Z,10.30
2019-04-21T22:14:33.992Z,10.20
2019-04-21T22:17:10.977Z,10.20
2019-04-21T22:19:52.396Z,10.20
2019-04-21T22:22:14.158Z,10.10
2019-04-21T22:24:46.872Z,10.10
2019-04-21T22:26:59.297Z,10.10
2019-04-21T22:29:38.088Z,10.00
2019-04-21T22:32:05.527Z,10.00
2019-04-21T22:34:35.710Z,9.90
2019-04-21T22:37:18.105Z,9.90
2019-04-21T22:39:49.604Z,9.90
2019-04-21T22:42:11.444Z,9.80
2019-04-21T22:44:32.272Z,9.80
2019-04-21T22:47:10.962Z,9.70
2019-04-21T22:49:32.583Z,9.70
2019-04-21T22:52:10.371Z,9.70
2019-04-21T22:54:37.554Z,9.60
2019-04-21T22:57:11.950Z,9.50
2019-04-21T22:59:34.175Z,9.50
2019-04-21T23:02:06.370Z,9.50
2019-04-21T23:04:41.818Z,9.50
2019-04-21T23:07:10.069Z,9.40
2019-04-21T23:09:37.179Z,9.40
2019-04-21T23:12:06.180Z,9.30
2019-04-21T23:14:45.370Z,9.30
2019-04-21T23:17:29.793Z,9.30
2019-04-21T23:19:59.924Z,9.20
2019-04-21T23:22:24.824Z,9.10
2019-04-21T23:24:58.638Z,9.10
2019-04-21T23:27:21.728Z,9.10
2019-04-21T23:30:00.490Z,9.10
2019-04-21T23:32:23.827Z,9.00
2019-04-21T23:34:40.723Z,9.20
2019-04-21T23:37:15.077Z,9.20
2019-04-21T23:39:41.561Z,9.10
2019-04-21T23:42:11.233Z,9.00
2019-04-21T23:44:45.907Z,8.90
2019-04-21T23:47:19.939Z,8.90
2019-04-21T23:49:51.078Z,8.80
2019-04-21T23:52:15.541Z,8.70
2019-04-21T23:54:43.071Z,8.70
2019-04-21T23:57:23.474Z,8.60
2019-04-21T23:59:46.883Z,8.60
